sensor_id;sensor_type;location;lat;lon;timestamp;temperature;humidity
55648;DHT22;45266;48.756;9.246;2022-07-22T00:00:28;17.70;99.90
55648;DHT22;45266;48.756;9.246;2022-07-22T00:01:30;17.70;99.90
55648;DHT22;45266;48.756;9.246;2022-07-22T00:02:31;17.70;99.90
55648;DHT22;45266;48.756;9.246;2022-07-22T00:03:33;17.70;99.90
55648;DHT22;45266;48.756;9.246;2022-07-22T00:04:35;17.70;99.90
55648;DHT22;45266;48.756;9.246;2022-07-22T00:05:37;17.70;99.90
55648;DHT22;45266;48.756;9.246;2022-07-22T00:06:39;17.60;99.90
55648;DHT22;45266;48.756;9.246;2022-07-22T00:07:42;17.60;99.90
55648;DHT22;45266;48.756;9.246;2022-07-22T00:08:44;17.60;99.90
55648;DHT22;45266;48.756;9.246;2022-07-22T00:09:46;17.60;99.90
55648;DHT22;45266;48.756;9.246;2022-07-22T00:10:48;17.60;99.90
55648;DHT22;45266;48.756;9.246;2022-07-22T00:11:50;17.60;99.90
55648;DHT22;45266;48.756;9.246;2022-07-22T00:12:52;17.60;99.90
55648;DHT22;45266;48.756;9.246;2022-07-22T00:13:53;17.50;99.90
55648;DHT22;45266;48.756;9.246;2022-07-22T00:14:55;17.50;99.90
55648;DHT22;45266;48.756;9.246;2022-07-22T00:15:57;17.60;99.90
55648;DHT22;45266;48.756;9.246;2022-07-22T00:16:59;17.50;99.90
55648;DHT22;45266;48.756;9.246;2022-07-22T00:18:01;17.50;99.90
55648;DHT22;45266;48.756;9.246;2022-07-22T00:19:03;17.50;99.90
55648;DHT22;45266;48.756;9.246;2022-07-22T00:20:05;17.50;99.90
55648;DHT22;45266;48.756;9.246;2022-07-22T00:21:08;17.50;99.90
55648;DHT22;45266;48.756;9.246;2022-07-22T00:22:12;17.50;99.90
55648;DHT22;45266;48.756;9.246;2022-07-22T00:23:13;17.40;99.90
55648;DHT22;45266;48.756;9.246;2022-07-22T00:24:15;17.40;99.90
55648;DHT22;45266;48.756;9.246;2022-07-22T00:25:17;17.40;99.90
55648;DHT22;45266;48.756;9.246;2022-07-22T00:26:19;17.40;99.90
55648;DHT22;45266;48.756;9.246;2022-07-22T00:27:21;17.40;99.90
55648;DHT22;45266;48.756;9.246;2022-07-22T00:28:23;17.40;99.90
55648;DHT22;45266;48.756;9.246;2022-07-22T00:29:24;17.40;99.90
55648;DHT22;45266;48.756;9.246;2022-07-22T00:30:26;17.40;99.90
55648;DHT22;45266;48.756;9.246;2022-07-22T00:31:28;17.40;99.90
55648;DHT22;45266;48.756;9.246;2022-07-22T00:32:30;17.40;99.90
55648;DHT22;45266;48.756;9.246;2022-07-22T00:33:32;17.30;99.90
55648;DHT22;45266;48.756;9.246;2022-07-22T00:34:33;17.30;99.90
55648;DHT22;45266;48.756;9.246;2022-07-22T00:35:35;17.30;99.90
55648;DHT22;45266;48.756;9.246;2022-07-22T00:36:43;17.30;99.90
55648;DHT22;45266;48.756;9.246;2022-07-22T00:37:45;17.30;99.90
55648;DHT22;45266;48.756;9.246;2022-07-22T00:38:47;17.30;99.90
55648;DHT22;45266;48.756;9.246;2022-07-22T00:39:49;17.30;99.90
55648;DHT22;45266;48.756;9.246;2022-07-22T00:40:51;17.20;99.90
55648;DHT22;45266;48.756;9.246;2022-07-22T00:41:52;17.30;99.90
55648;DHT22;45266;48.756;9.246;2022-07-22T00:42:55;17.30;99.90
55648;DHT22;45266;48.756;9.246;2022-07-22T00:44:07;17.20;99.90
55648;DHT22;45266;48.756;9.246;2022-07-22T00:45:10;17.30;99.90
55648;DHT22;45266;48.756;9.246;2022-07-22T00:46:14;17.30;99.90
55648;DHT22;45266;48.756;9.246;2022-07-22T00:47:16;17.20;99.90
55648;DHT22;45266;48.756;9.246;2022-07-22T00:48:17;17.20;99.90
55648;DHT22;45266;48.756;9.246;2022-07-22T00:49:20;17.20;99.90
55648;DHT22;45266;48.756;9.246;2022-07-22T00:50:22;17.20;99.90
55648;DHT22;45266;48.756;9.246;2022-07-22T00:51:27;17.20;99.90
55648;DHT22;45266;48.756;9.246;2022-07-22T00:52:33;17.20;99.90
55648;DHT22;45266;48.756;9.246;2022-07-22T00:53:35;17.20;99.90
55648;DHT22;45266;48.756;9.246;2022-07-22T00:54:37;17.20;99.90
55648;DHT22;45266;48.756;9.246;2022-07-22T00:55:40;17.20;99.90
55648;DHT22;45266;48.756;9.246;2022-07-22T00:56:42;17.10;99.90
55648;DHT22;45266;48.756;9.246;2022-07-22T00:57:44;17.20;99.90
55648;DHT22;45266;48.756;9.246;2022-07-22T00:58:48;17.10;99.90
55648;DHT22;45266;48.756;9.246;2022-07-22T00:59:50;17.10;99.90
55648;DHT22;45266;48.756;9.246;2022-07-22T01:00:52;17.10;99.90
55648;DHT22;45266;48.756;9.246;2022-07-22T01:01:54;17.10;99.90
55648;DHT22;45266;48.756;9.246;2022-07-22T01:02:56;17.10;99.90
55648;DHT22;45266;48.756;9.246;2022-07-22T01:03:58;17.00;99.90
55648;DHT22;45266;48.756;9.246;2022-07-22T01:05:02;17.10;99.90
55648;DHT22;45266;48.756;9.246;2022-07-22T01:06:05;17.10;99.90
55648;DHT22;45266;48.756;9.246;2022-07-22T01:07:07;17.10;99.90
55648;DHT22;45266;48.756;9.246;2022-07-22T01:08:10;17.00;99.90
55648;DHT22;45266;48.756;9.246;2022-07-22T01:09:12;17.10;99.90
55648;DHT22;45266;48.756;9.246;2022-07-22T01:10:14;17.10;99.90
55648;DHT22;45266;48.756;9.246;2022-07-22T01:11:18;17.10;99.90
55648;DHT22;45266;48.756;9.246;2022-07-22T01:12:20;17.10;99.90
55648;DHT22;45266;48.756;9.246;2022-07-22T01:13:22;17.00;99.90
55648;DHT22;45266;48.756;9.246;2022-07-22T01:14:24;17.00;99.90
55648;DHT22;45266;48.756;9.246;2022-07-22T01:15:26;17.00;99.90
55648;DHT22;45266;48.756;9.246;2022-07-22T01:16:27;17.00;99.90
55648;DHT22;45266;48.756;9.246;2022-07-22T01:17:30;17.10;99.90
55648;DHT22;45266;48.756;9.246;2022-07-22T01:18:32;17.00;99.90
55648;DHT22;45266;48.756;9.246;2022-07-22T01:19:36;17.00;99.90
55648;DHT22;45266;48.756;9.246;2022-07-22T01:20:38;17.00;99.90
55648;DHT22;45266;48.756;9.246;2022-07-22T01:21:40;17.00;99.90
55648;DHT22;45266;48.756;9.246;2022-07-22T01:22:41;17.00;99.90
55648;DHT22;45266;48.756;9.246;2022-07-22T01:23:46;17.00;99.90
55648;DHT22;45266;48.756;9.246;2022-07-22T01:24:48;16.90;99.90
55648;DHT22;45266;48.756;9.246;2022-07-22T01:25:50;17.00;99.90
55648;DHT22;45266;48.756;9.246;2022-07-22T01:26:52;17.00;99.90
55648;DHT22;45266;48.756;9.246;2022-07-22T01:27:54;16.90;99.90
55648;DHT22;45266;48.756;9.246;2022-07-22T01:28:56;16.90;99.90
55648;DHT22;45266;48.756;9.246;2022-07-22T01:29:59;16.90;99.90
55648;DHT22;45266;48.756;9.246;2022-07-22T01:31:01;16.90;99.90
55648;DHT22;45266;48.756;9.246;2022-07-22T01:32:03;16.90;99.90
55648;DHT22;45266;48.756;9.246;2022-07-22T01:33:05;16.90;99.90
55648;DHT22;45266;48.756;9.246;2022-07-22T01:34:07;16.90;99.90
55648;DHT22;45266;48.756;9.246;2022-07-22T01:35:09;16.90;99.90
55648;DHT22;45266;48.756;9.246;2022-07-22T01:36:11;16.90;99.90
55648;DHT22;45266;48.756;9.246;2022-07-22T01:37:13;16.90;99.90
55648;DHT22;45266;48.756;9.246;2022-07-22T01:38:15;16.90;99.90
55648;DHT22;45266;48.756;9.246;2022-07-22T01:39:17;16.90;99.90
55648;DHT22;45266;48.756;9.246;2022-07-22T01:40:19;16.90;99.90
55648;DHT22;45266;48.756;9.246;2022-07-22T01:41:21;16.90;99.90
55648;DHT22;45266;48.756;9.246;2022-07-22T01:42:23;16.90;99.90
55648;DHT22;45266;48.756;9.246;2022-07-22T01:43:25;16.90;99.90
55648;DHT22;45266;48.756;9.246;2022-07-22T01:44:26;16.80;99.90
55648;DHT22;45266;48.756;9.246;2022-07-22T01:45:28;16.90;99.90
55648;DHT22;45266;48.756;9.246;2022-07-22T01:46:31;16.80;99.90
55648;DHT22;45266;48.756;9.246;2022-07-22T01:47:33;16.80;99.90
55648;DHT22;45266;48.756;9.246;2022-07-22T01:48:35;16.80;99.90
55648;DHT22;45266;48.756;9.246;2022-07-22T01:49:37;16.80;99.90
55648;DHT22;45266;48.756;9.246;2022-07-22T01:50:40;16.80;99.90
55648;DHT22;45266;48.756;9.246;2022-07-22T01:51:43;16.80;99.90
55648;DHT22;45266;48.756;9.246;2022-07-22T01:52:44;16.80;99.90
55648;DHT22;45266;48.756;9.246;2022-07-22T01:53:46;16.80;99.90
55648;DHT22;45266;48.756;9.246;2022-07-22T01:54:48;16.80;99.90
55648;DHT22;45266;48.756;9.246;2022-07-22T01:55:50;16.70;99.90
55648;DHT22;45266;48.756;9.246;2022-07-22T01:56:52;16.70;99.90
55648;DHT22;45266;48.756;9.246;2022-07-22T01:57:53;16.70;99.90
55648;DHT22;45266;48.756;9.246;2022-07-22T01:58:55;16.70;99.90
55648;DHT22;45266;48.756;9.246;2022-07-22T01:59:57;16.70;99.90
55648;DHT22;45266;48.756;9.246;2022-07-22T02:00:59;16.70;99.90
55648;DHT22;45266;48.756;9.246;2022-07-22T02:02:01;16.70;99.90
55648;DHT22;45266;48.756;9.246;2022-07-22T02:03:04;16.70;99.90
55648;DHT22;45266;48.756;9.246;2022-07-22T02:04:06;16.70;99.90
55648;DHT22;45266;48.756;9.246;2022-07-22T02:05:08;16.60;99.90
55648;DHT22;45266;48.756;9.246;2022-07-22T02:06:10;16.60;99.90
55648;DHT22;45266;48.756;9.246;2022-07-22T02:07:12;16.60;99.90
55648;DHT22;45266;48.756;9.246;2022-07-22T02:08:15;16.60;99.90
55648;DHT22;45266;48.756;9.246;2022-07-22T02:09:16;16.60;99.90
55648;DHT22;45266;48.756;9.246;2022-07-22T02:10:19;16.60;99.90
55648;DHT22;45266;48.756;9.246;2022-07-22T02:11:20;16.60;99.90
55648;DHT22;45266;48.756;9.246;2022-07-22T02:12:22;16.60;99.90
55648;DHT22;45266;48.756;9.246;2022-07-22T02:13:24;16.60;99.90
55648;DHT22;45266;48.756;9.246;2022-07-22T02:14:26;16.50;99.90
55648;DHT22;45266;48.756;9.246;2022-07-22T02:15:28;16.50;99.90
55648;DHT22;45266;48.756;9.246;2022-07-22T02:16:30;16.50;99.90
55648;DHT22;45266;48.756;9.246;2022-07-22T02:17:33;16.50;99.90
55648;DHT22;45266;48.756;9.246;2022-07-22T02:18:35;16.50;99.90
55648;DHT22;45266;48.756;9.246;2022-07-22T02:19:38;16.50;99.90
55648;DHT22;45266;48.756;9.246;2022-07-22T02:20:40;16.50;99.90
55648;DHT22;45266;48.756;9.246;2022-07-22T02:21:42;16.50;99.90
55648;DHT22;45266;48.756;9.246;2022-07-22T02:22:44;16.40;99.90
55648;DHT22;45266;48.756;9.246;2022-07-22T02:23:46;16.40;99.90
55648;DHT22;45266;48.756;9.246;2022-07-22T02:24:47;16.40;99.90
55648;DHT22;45266;48.756;9.246;2022-07-22T02:25:49;16.40;99.90
55648;DHT22;45266;48.756;9.246;2022-07-22T02:26:51;16.40;99.90
55648;DHT22;45266;48.756;9.246;2022-07-22T02:27:53;16.50;99.90
55648;DHT22;45266;48.756;9.246;2022-07-22T02:28:54;16.50;99.90
55648;DHT22;45266;48.756;9.246;2022-07-22T02:29:57;16.50;99.90
55648;DHT22;45266;48.756;9.246;2022-07-22T02:30:59;16.40;99.90
55648;DHT22;45266;48.756;9.246;2022-07-22T02:32:01;16.40;99.90
55648;DHT22;45266;48.756;9.246;2022-07-22T02:33:03;16.40;99.90
55648;DHT22;45266;48.756;9.246;2022-07-22T02:34:05;16.40;99.90
55648;DHT22;45266;48.756;9.246;2022-07-22T02:35:07;16.40;99.90
55648;DHT22;45266;48.756;9.246;2022-07-22T02:36:10;16.40;99.90
55648;DHT22;45266;48.756;9.246;2022-07-22T02:37:12;16.40;99.90
55648;DHT22;45266;48.756;9.246;2022-07-22T02:38:14;16.40;99.90
55648;DHT22;45266;48.756;9.246;2022-07-22T02:39:15;16.40;99.90
55648;DHT22;45266;48.756;9.246;2022-07-22T02:40:18;16.40;99.90
55648;DHT22;45266;48.756;9.246;2022-07-22T02:41:21;16.40;99.90
55648;DHT22;45266;48.756;9.246;2022-07-22T02:42:22;16.40;99.90
55648;DHT22;45266;48.756;9.246;2022-07-22T02:43:24;16.40;99.90
55648;DHT22;45266;48.756;9.246;2022-07-22T02:44:26;16.40;99.90
55648;DHT22;45266;48.756;9.246;2022-07-22T02:45:28;16.40;99.90
55648;DHT22;45266;48.756;9.246;2022-07-22T02:46:30;16.40;99.90
55648;DHT22;45266;48.756;9.246;2022-07-22T02:47:32;16.40;99.90
55648;DHT22;45266;48.756;9.246;2022-07-22T02:48:33;16.30;99.90
55648;DHT22;45266;48.756;9.246;2022-07-22T02:49:35;16.30;99.90
55648;DHT22;45266;48.756;9.246;2022-07-22T02:50:37;16.30;99.90
55648;DHT22;45266;48.756;9.246;2022-07-22T02:51:40;16.30;99.90
55648;DHT22;45266;48.756;9.246;2022-07-22T02:52:42;16.30;99.90
55648;DHT22;45266;48.756;9.246;2022-07-22T02:53:44;16.30;99.90
55648;DHT22;45266;48.756;9.246;2022-07-22T02:54:45;16.30;99.90
55648;DHT22;45266;48.756;9.246;2022-07-22T02:55:47;16.30;99.90
55648;DHT22;45266;48.756;9.246;2022-07-22T02:56:49;16.20;99.90
55648;DHT22;45266;48.756;9.246;2022-07-22T02:57:51;16.20;99.90
55648;DHT22;45266;48.756;9.246;2022-07-22T02:58:53;16.20;99.90
55648;DHT22;45266;48.756;9.246;2022-07-22T02:59:56;16.20;99.90
55648;DHT22;45266;48.756;9.246;2022-07-22T03:00:58;16.20;99.90
55648;DHT22;45266;48.756;9.246;2022-07-22T03:02:00;16.20;99.90
55648;DHT22;45266;48.756;9.246;2022-07-22T03:03:02;16.20;99.90
55648;DHT22;45266;48.756;9.246;2022-07-22T03:04:04;16.20;99.90
55648;DHT22;45266;48.756;9.246;2022-07-22T03:05:06;16.20;99.90
55648;DHT22;45266;48.756;9.246;2022-07-22T03:06:08;16.20;99.90
55648;DHT22;45266;48.756;9.246;2022-07-22T03:07:10;16.20;99.90
55648;DHT22;45266;48.756;9.246;2022-07-22T03:08:12;16.20;99.90
55648;DHT22;45266;48.756;9.246;2022-07-22T03:09:14;16.20;99.90
55648;DHT22;45266;48.756;9.246;2022-07-22T03:10:16;16.20;99.90
55648;DHT22;45266;48.756;9.246;2022-07-22T03:11:18;16.20;99.90
55648;DHT22;45266;48.756;9.246;2022-07-22T03:12:19;16.20;99.90
55648;DHT22;45266;48.756;9.246;2022-07-22T03:13:21;16.20;99.90
55648;DHT22;45266;48.756;9.246;2022-07-22T03:14:23;16.20;99.90
55648;DHT22;45266;48.756;9.246;2022-07-22T03:15:25;16.20;99.90
55648;DHT22;45266;48.756;9.246;2022-07-22T03:16:27;16.20;99.90
55648;DHT22;45266;48.756;9.246;2022-07-22T03:17:33;16.20;99.90
55648;DHT22;45266;48.756;9.246;2022-07-22T03:18:35;16.20;99.90
55648;DHT22;45266;48.756;9.246;2022-07-22T03:19:37;16.20;99.90
55648;DHT22;45266;48.756;9.246;2022-07-22T03:20:39;16.20;99.90
55648;DHT22;45266;48.756;9.246;2022-07-22T03:21:40;16.20;99.90
55648;DHT22;45266;48.756;9.246;2022-07-22T03:22:42;16.20;99.90
55648;DHT22;45266;48.756;9.246;2022-07-22T03:23:44;16.20;99.90
55648;DHT22;45266;48.756;9.246;2022-07-22T03:24:46;16.20;99.90
55648;DHT22;45266;48.756;9.246;2022-07-22T03:25:47;16.20;99.90
55648;DHT22;45266;48.756;9.246;2022-07-22T03:26:49;16.20;99.90
55648;DHT22;45266;48.756;9.246;2022-07-22T03:27:51;16.10;99.90
55648;DHT22;45266;48.756;9.246;2022-07-22T03:28:53;16.10;99.90
55648;DHT22;45266;48.756;9.246;2022-07-22T03:29:56;16.10;99.90
55648;DHT22;45266;48.756;9.246;2022-07-22T03:30:58;16.10;99.90
55648;DHT22;45266;48.756;9.246;2022-07-22T03:32:00;16.10;99.90
55648;DHT22;45266;48.756;9.246;2022-07-22T03:33:02;16.10;99.90
55648;DHT22;45266;48.756;9.246;2022-07-22T03:34:03;16.10;99.90
55648;DHT22;45266;48.756;9.246;2022-07-22T03:35:06;16.10;99.90
55648;DHT22;45266;48.756;9.246;2022-07-22T03:36:08;16.10;99.90
55648;DHT22;45266;48.756;9.246;2022-07-22T03:37:10;16.00;99.90
55648;DHT22;45266;48.756;9.246;2022-07-22T03:38:11;16.00;99.90
55648;DHT22;45266;48.756;9.246;2022-07-22T03:39:13;16.00;99.90
55648;DHT22;45266;48.756;9.246;2022-07-22T03:40:15;16.00;99.90
55648;DHT22;45266;48.756;9.246;2022-07-22T03:41:17;16.10;99.90
55648;DHT22;45266;48.756;9.246;2022-07-22T03:42:19;16.00;99.90
55648;DHT22;45266;48.756;9.246;2022-07-22T03:43:21;16.00;99.90
55648;DHT22;45266;48.756;9.246;2022-07-22T03:44:23;16.10;99.90
55648;DHT22;45266;48.756;9.246;2022-07-22T03:45:25;16.00;99.90
55648;DHT22;45266;48.756;9.246;2022-07-22T03:46:27;16.00;99.90
55648;DHT22;45266;48.756;9.246;2022-07-22T03:47:28;16.00;99.90
55648;DHT22;45266;48.756;9.246;2022-07-22T03:48:30;16.00;99.90
55648;DHT22;45266;48.756;9.246;2022-07-22T03:49:32;16.00;99.90
55648;DHT22;45266;48.756;9.246;2022-07-22T03:50:34;16.00;99.90
55648;DHT22;45266;48.756;9.246;2022-07-22T03:51:36;16.00;99.90
55648;DHT22;45266;48.756;9.246;2022-07-22T03:52:38;16.00;99.90
55648;DHT22;45266;48.756;9.246;2022-07-22T03:53:39;16.00;99.90
55648;DHT22;45266;48.756;9.246;2022-07-22T03:54:42;16.00;99.90
55648;DHT22;45266;48.756;9.246;2022-07-22T03:55:44;16.00;99.90
55648;DHT22;45266;48.756;9.246;2022-07-22T03:56:46;16.00;99.90
55648;DHT22;45266;48.756;9.246;2022-07-22T03:57:48;16.00;99.90
55648;DHT22;45266;48.756;9.246;2022-07-22T03:58:50;16.00;99.90
55648;DHT22;45266;48.756;9.246;2022-07-22T03:59:52;16.00;99.90
55648;DHT22;45266;48.756;9.246;2022-07-22T04:00:54;16.00;99.90
55648;DHT22;45266;48.756;9.246;2022-07-22T04:01:56;16.00;99.90
55648;DHT22;45266;48.756;9.246;2022-07-22T04:02:58;16.00;99.90
55648;DHT22;45266;48.756;9.246;2022-07-22T04:04:00;16.00;99.90
55648;DHT22;45266;48.756;9.246;2022-07-22T04:05:05;16.00;99.90
55648;DHT22;45266;48.756;9.246;2022-07-22T04:06:07;16.00;99.90
55648;DHT22;45266;48.756;9.246;2022-07-22T04:07:09;16.00;99.90
55648;DHT22;45266;48.756;9.246;2022-07-22T04:08:11;16.00;99.90
55648;DHT22;45266;48.756;9.246;2022-07-22T04:09:13;16.00;99.90
55648;DHT22;45266;48.756;9.246;2022-07-22T04:10:15;16.00;99.90
55648;DHT22;45266;48.756;9.246;2022-07-22T04:11:17;16.00;99.90
55648;DHT22;45266;48.756;9.246;2022-07-22T04:12:19;16.00;99.90
55648;DHT22;45266;48.756;9.246;2022-07-22T04:13:20;16.00;99.90
55648;DHT22;45266;48.756;9.246;2022-07-22T04:14:22;16.00;99.90
55648;DHT22;45266;48.756;9.246;2022-07-22T04:15:24;16.00;99.90
55648;DHT22;45266;48.756;9.246;2022-07-22T04:16:26;16.10;99.90
55648;DHT22;45266;48.756;9.246;2022-07-22T04:17:33;16.10;99.90
55648;DHT22;45266;48.756;9.246;2022-07-22T04:18:46;16.10;99.90
55648;DHT22;45266;48.756;9.246;2022-07-22T04:19:55;16.10;99.90
55648;DHT22;45266;48.756;9.246;2022-07-22T04:20:57;16.10;99.90
55648;DHT22;45266;48.756;9.246;2022-07-22T04:21:59;16.10;99.90
55648;DHT22;45266;48.756;9.246;2022-07-22T04:23:01;16.10;99.90
55648;DHT22;45266;48.756;9.246;2022-07-22T04:24:03;16.10;99.90
55648;DHT22;45266;48.756;9.246;2022-07-22T04:25:05;16.10;99.90
55648;DHT22;45266;48.756;9.246;2022-07-22T04:26:08;16.10;99.90
55648;DHT22;45266;48.756;9.246;2022-07-22T04:27:10;16.10;99.90
55648;DHT22;45266;48.756;9.246;2022-07-22T04:28:12;16.10;99.90
55648;DHT22;45266;48.756;9.246;2022-07-22T04:29:14;16.10;99.90
55648;DHT22;45266;48.756;9.246;2022-07-22T04:30:16;16.10;99.90
55648;DHT22;45266;48.756;9.246;2022-07-22T04:31:20;16.10;99.90
55648;DHT22;45266;48.756;9.246;2022-07-22T04:32:26;16.10;99.90
55648;DHT22;45266;48.756;9.246;2022-07-22T04:33:28;16.20;99.90
55648;DHT22;45266;48.756;9.246;2022-07-22T04:34:31;16.20;99.90
55648;DHT22;45266;48.756;9.246;2022-07-22T04:35:36;16.20;99.90
55648;DHT22;45266;48.756;9.246;2022-07-22T04:36:43;16.20;99.90
55648;DHT22;45266;48.756;9.246;2022-07-22T04:37:46;16.20;99.90
55648;DHT22;45266;48.756;9.246;2022-07-22T04:38:48;16.20;99.90
55648;DHT22;45266;48.756;9.246;2022-07-22T04:39:56;16.20;99.90
55648;DHT22;45266;48.756;9.246;2022-07-22T04:40:58;16.20;99.90
55648;DHT22;45266;48.756;9.246;2022-07-22T04:42:00;16.30;99.90
55648;DHT22;45266;48.756;9.246;2022-07-22T04:43:02;16.30;99.90
55648;DHT22;45266;48.756;9.246;2022-07-22T04:44:05;16.30;99.90
55648;DHT22;45266;48.756;9.246;2022-07-22T04:45:07;16.40;99.90
55648;DHT22;45266;48.756;9.246;2022-07-22T04:46:11;16.40;99.90
55648;DHT22;45266;48.756;9.246;2022-07-22T04:47:13;16.40;99.90
55648;DHT22;45266;48.756;9.246;2022-07-22T04:48:18;16.40;99.90
55648;DHT22;45266;48.756;9.246;2022-07-22T04:49:20;16.40;99.90
55648;DHT22;45266;48.756;9.246;2022-07-22T04:50:23;16.40;99.90
55648;DHT22;45266;48.756;9.246;2022-07-22T04:51:26;16.40;99.90
55648;DHT22;45266;48.756;9.246;2022-07-22T04:52:29;16.40;99.90
55648;DHT22;45266;48.756;9.246;2022-07-22T04:53:31;16.40;99.90
55648;DHT22;45266;48.756;9.246;2022-07-22T04:54:49;16.40;99.90
55648;DHT22;45266;48.756;9.246;2022-07-22T04:55:51;16.50;99.90
55648;DHT22;45266;48.756;9.246;2022-07-22T04:56:55;16.50;99.90
55648;DHT22;45266;48.756;9.246;2022-07-22T04:57:57;16.50;99.90
55648;DHT22;45266;48.756;9.246;2022-07-22T04:58:58;16.40;99.90
55648;DHT22;45266;48.756;9.246;2022-07-22T05:00:02;16.50;99.90
55648;DHT22;45266;48.756;9.246;2022-07-22T05:01:07;16.60;99.90
55648;DHT22;45266;48.756;9.246;2022-07-22T05:02:09;16.60;99.90
55648;DHT22;45266;48.756;9.246;2022-07-22T05:03:14;16.60;99.90
55648;DHT22;45266;48.756;9.246;2022-07-22T05:04:16;16.70;99.90
55648;DHT22;45266;48.756;9.246;2022-07-22T05:05:17;16.70;99.90
55648;DHT22;45266;48.756;9.246;2022-07-22T05:06:21;16.70;99.90
55648;DHT22;45266;48.756;9.246;2022-07-22T05:07:25;16.70;99.90
55648;DHT22;45266;48.756;9.246;2022-07-22T05:08:27;16.80;99.90
55648;DHT22;45266;48.756;9.246;2022-07-22T05:09:28;16.80;99.90
55648;DHT22;45266;48.756;9.246;2022-07-22T05:10:32;16.80;99.90
55648;DHT22;45266;48.756;9.246;2022-07-22T05:11:34;16.90;99.90
55648;DHT22;45266;48.756;9.246;2022-07-22T05:12:37;16.90;99.90
55648;DHT22;45266;48.756;9.246;2022-07-22T05:13:39;16.90;99.90
55648;DHT22;45266;48.756;9.246;2022-07-22T05:14:40;17.00;99.90
55648;DHT22;45266;48.756;9.246;2022-07-22T05:15:42;17.00;99.90
55648;DHT22;45266;48.756;9.246;2022-07-22T05:16:47;17.10;99.90
55648;DHT22;45266;48.756;9.246;2022-07-22T05:17:50;17.10;99.90
55648;DHT22;45266;48.756;9.246;2022-07-22T05:18:52;17.10;99.90
55648;DHT22;45266;48.756;9.246;2022-07-22T05:19:55;17.20;99.90
55648;DHT22;45266;48.756;9.246;2022-07-22T05:20:56;17.20;99.90
55648;DHT22;45266;48.756;9.246;2022-07-22T05:21:58;17.30;99.90
55648;DHT22;45266;48.756;9.246;2022-07-22T05:23:00;17.30;99.90
55648;DHT22;45266;48.756;9.246;2022-07-22T05:24:09;17.40;99.90
55648;DHT22;45266;48.756;9.246;2022-07-22T05:25:11;17.40;99.90
55648;DHT22;45266;48.756;9.246;2022-07-22T05:26:13;17.50;99.90
55648;DHT22;45266;48.756;9.246;2022-07-22T05:27:15;17.50;99.90
55648;DHT22;45266;48.756;9.246;2022-07-22T05:28:18;17.60;99.90
55648;DHT22;45266;48.756;9.246;2022-07-22T05:29:20;17.60;99.90
55648;DHT22;45266;48.756;9.246;2022-07-22T05:30:22;17.70;99.90
55648;DHT22;45266;48.756;9.246;2022-07-22T05:31:25;17.70;99.90
55648;DHT22;45266;48.756;9.246;2022-07-22T05:32:27;17.80;99.90
55648;DHT22;45266;48.756;9.246;2022-07-22T05:33:29;17.80;99.90
55648;DHT22;45266;48.756;9.246;2022-07-22T05:34:31;17.90;99.90
55648;DHT22;45266;48.756;9.246;2022-07-22T05:35:32;17.90;99.90
55648;DHT22;45266;48.756;9.246;2022-07-22T05:36:36;17.90;99.90
55648;DHT22;45266;48.756;9.246;2022-07-22T05:37:38;18.00;99.90
55648;DHT22;45266;48.756;9.246;2022-07-22T05:38:40;18.10;99.90
55648;DHT22;45266;48.756;9.246;2022-07-22T05:39:43;18.10;99.90
55648;DHT22;45266;48.756;9.246;2022-07-22T05:40:45;18.20;99.90
55648;DHT22;45266;48.756;9.246;2022-07-22T05:41:47;18.20;99.90
55648;DHT22;45266;48.756;9.246;2022-07-22T05:42:57;18.20;99.90
55648;DHT22;45266;48.756;9.246;2022-07-22T05:43:59;18.30;99.90
55648;DHT22;45266;48.756;9.246;2022-07-22T05:45:01;18.30;99.90
55648;DHT22;45266;48.756;9.246;2022-07-22T05:46:04;18.40;99.90
55648;DHT22;45266;48.756;9.246;2022-07-22T05:47:06;18.50;99.90
55648;DHT22;45266;48.756;9.246;2022-07-22T05:48:09;18.50;99.90
55648;DHT22;45266;48.756;9.246;2022-07-22T05:49:11;18.60;99.90
55648;DHT22;45266;48.756;9.246;2022-07-22T05:50:12;18.60;99.90
55648;DHT22;45266;48.756;9.246;2022-07-22T05:51:15;18.60;99.90
55648;DHT22;45266;48.756;9.246;2022-07-22T05:52:19;18.70;99.90
55648;DHT22;45266;48.756;9.246;2022-07-22T05:53:20;18.80;99.90
55648;DHT22;45266;48.756;9.246;2022-07-22T05:54:24;18.80;99.90
55648;DHT22;45266;48.756;9.246;2022-07-22T05:55:26;18.90;99.90
55648;DHT22;45266;48.756;9.246;2022-07-22T05:56:28;18.90;99.90
55648;DHT22;45266;48.756;9.246;2022-07-22T05:57:30;18.90;99.90
55648;DHT22;45266;48.756;9.246;2022-07-22T05:58:32;19.00;99.90
55648;DHT22;45266;48.756;9.246;2022-07-22T05:59:44;19.00;99.90
55648;DHT22;45266;48.756;9.246;2022-07-22T06:00:49;19.10;99.90
55648;DHT22;45266;48.756;9.246;2022-07-22T06:02:36;19.10;99.90
55648;DHT22;45266;48.756;9.246;2022-07-22T06:03:46;19.20;99.90
55648;DHT22;45266;48.756;9.246;2022-07-22T06:04:51;19.30;99.90
55648;DHT22;45266;48.756;9.246;2022-07-22T06:05:57;19.30;99.90
55648;DHT22;45266;48.756;9.246;2022-07-22T06:06:59;19.40;99.90
55648;DHT22;45266;48.756;9.246;2022-07-22T06:08:02;19.40;99.90
55648;DHT22;45266;48.756;9.246;2022-07-22T06:09:04;19.50;99.90
55648;DHT22;45266;48.756;9.246;2022-07-22T06:10:06;19.50;99.90
55648;DHT22;45266;48.756;9.246;2022-07-22T06:11:08;19.50;99.90
55648;DHT22;45266;48.756;9.246;2022-07-22T06:12:10;19.60;99.90
55648;DHT22;45266;48.756;9.246;2022-07-22T06:13:12;19.60;99.90
55648;DHT22;45266;48.756;9.246;2022-07-22T06:14:14;19.70;99.90
55648;DHT22;45266;48.756;9.246;2022-07-22T06:15:23;19.70;99.90
55648;DHT22;45266;48.756;9.246;2022-07-22T06:16:27;19.70;99.90
55648;DHT22;45266;48.756;9.246;2022-07-22T06:17:30;19.70;99.90
55648;DHT22;45266;48.756;9.246;2022-07-22T06:18:31;19.80;99.90
55648;DHT22;45266;48.756;9.246;2022-07-22T06:19:33;19.90;99.90
55648;DHT22;45266;48.756;9.246;2022-07-22T06:20:35;19.90;99.90
55648;DHT22;45266;48.756;9.246;2022-07-22T06:21:37;20.00;99.90
55648;DHT22;45266;48.756;9.246;2022-07-22T06:22:45;20.00;99.90
55648;DHT22;45266;48.756;9.246;2022-07-22T06:23:47;20.10;99.90
55648;DHT22;45266;48.756;9.246;2022-07-22T06:24:54;20.20;99.90
55648;DHT22;45266;48.756;9.246;2022-07-22T06:25:56;20.30;99.90
55648;DHT22;45266;48.756;9.246;2022-07-22T06:26:58;20.30;99.90
55648;DHT22;45266;48.756;9.246;2022-07-22T06:28:00;20.40;99.90
55648;DHT22;45266;48.756;9.246;2022-07-22T06:29:01;20.40;99.90
55648;DHT22;45266;48.756;9.246;2022-07-22T06:30:04;20.50;99.90
55648;DHT22;45266;48.756;9.246;2022-07-22T06:31:06;20.50;99.90
55648;DHT22;45266;48.756;9.246;2022-07-22T06:32:08;20.50;99.90
55648;DHT22;45266;48.756;9.246;2022-07-22T06:33:10;20.50;99.90
55648;DHT22;45266;48.756;9.246;2022-07-22T06:34:13;20.60;99.90
55648;DHT22;45266;48.756;9.246;2022-07-22T06:35:14;20.60;99.90